sensor_id;sensor_type;location;lat;lon;timestamp;temperature;humidity
55369;DHT22;41247;49.736;8.752;2023-01-30T00:00:59;-0.90;99.90
55369;DHT22;41247;49.736;8.752;2023-01-30T00:04:40;-0.90;99.90
55369;DHT22;41247;49.736;8.752;2023-01-30T00:08:21;-0.90;99.90
55369;DHT22;41247;49.736;8.752;2023-01-30T00:12:02;-0.90;99.90
55369;DHT22;41247;49.736;8.752;2023-01-30T00:15:43;-1.00;99.90
55369;DHT22;41247;49.736;8.752;2023-01-30T00:19:24;-1.00;99.90
55369;DHT22;41247;49.736;8.752;2023-01-30T00:23:04;-1.00;99.90
55369;DHT22;41247;49.736;8.752;2023-01-30T00:26:45;-1.00;99.90
55369;DHT22;41247;49.736;8.752;2023-01-30T00:30:26;-1.00;99.90
55369;DHT22;41247;49.736;8.752;2023-01-30T00:34:07;-1.00;99.90
55369;DHT22;41247;49.736;8.752;2023-01-30T00:37:47;-0.90;99.90
55369;DHT22;41247;49.736;8.752;2023-01-30T00:41:28;-0.90;99.90
55369;DHT22;41247;49.736;8.752;2023-01-30T00:45:10;-0.90;99.90
55369;DHT22;41247;49.736;8.752;2023-01-30T00:48:51;-0.80;99.90
55369;DHT22;41247;49.736;8.752;2023-01-30T00:52:32;-0.80;99.90
55369;DHT22;41247;49.736;8.752;2023-01-30T00:56:12;-0.80;99.90
55369;DHT22;41247;49.736;8.752;2023-01-30T00:59:53;-0.80;99.90
55369;DHT22;41247;49.736;8.752;2023-01-30T01:03:33;-0.80;99.90
55369;DHT22;41247;49.736;8.752;2023-01-30T01:07:14;-0.80;99.90
55369;DHT22;41247;49.736;8.752;2023-01-30T01:10:55;-0.80;99.90
55369;DHT22;41247;49.736;8.752;2023-01-30T01:14:36;-0.70;99.90
55369;DHT22;41247;49.736;8.752;2023-01-30T01:18:16;-0.70;99.90
55369;DHT22;41247;49.736;8.752;2023-01-30T01:21:57;-0.70;99.90
55369;DHT22;41247;49.736;8.752;2023-01-30T01:25:38;-0.70;99.90
55369;DHT22;41247;49.736;8.752;2023-01-30T01:29:19;-0.70;99.90
55369;DHT22;41247;49.736;8.752;2023-01-30T01:33:00;-0.80;99.90
55369;DHT22;41247;49.736;8.752;2023-01-30T01:36:40;-0.80;99.90
55369;DHT22;41247;49.736;8.752;2023-01-30T01:40:22;-0.80;99.90
55369;DHT22;41247;49.736;8.752;2023-01-30T01:44:04;-0.80;99.90
55369;DHT22;41247;49.736;8.752;2023-01-30T01:48:30;-0.70;99.90
55369;DHT22;41247;49.736;8.752;2023-01-30T01:52:25;-0.80;99.90
55369;DHT22;41247;49.736;8.752;2023-01-30T01:56:06;-0.80;99.90
55369;DHT22;41247;49.736;8.752;2023-01-30T01:59:51;-0.80;99.90
55369;DHT22;41247;49.736;8.752;2023-01-30T02:03:48;-0.80;99.90
55369;DHT22;41247;49.736;8.752;2023-01-30T02:07:40;-0.80;99.90
55369;DHT22;41247;49.736;8.752;2023-01-30T02:11:40;-0.80;99.90
55369;DHT22;41247;49.736;8.752;2023-01-30T02:15:22;-0.80;99.90
55369;DHT22;41247;49.736;8.752;2023-01-30T02:19:12;-0.80;99.90
55369;DHT22;41247;49.736;8.752;2023-01-30T02:28:09;-0.70;99.90
55369;DHT22;41247;49.736;8.752;2023-01-30T02:32:48;-0.70;99.90
55369;DHT22;41247;49.736;8.752;2023-01-30T02:41:29;-0.70;99.90
55369;DHT22;41247;49.736;8.752;2023-01-30T02:45:33;-0.70;99.90
55369;DHT22;41247;49.736;8.752;2023-01-30T02:49:28;-0.80;99.90
55369;DHT22;41247;49.736;8.752;2023-01-30T02:53:10;-0.80;99.90
55369;DHT22;41247;49.736;8.752;2023-01-30T02:56:55;-0.80;99.90
55369;DHT22;41247;49.736;8.752;2023-01-30T03:05:30;-0.80;99.90
55369;DHT22;41247;49.736;8.752;2023-01-30T03:13:48;-0.80;99.90
55369;DHT22;41247;49.736;8.752;2023-01-30T03:17:34;-0.70;99.90
55369;DHT22;41247;49.736;8.752;2023-01-30T03:21:16;-0.70;99.90
55369;DHT22;41247;49.736;8.752;2023-01-30T03:24:56;-0.70;99.90
55369;DHT22;41247;49.736;8.752;2023-01-30T03:28:37;-0.70;99.90
55369;DHT22;41247;49.736;8.752;2023-01-30T03:32:18;-0.70;99.90
55369;DHT22;41247;49.736;8.752;2023-01-30T03:35:59;-0.70;99.90
55369;DHT22;41247;49.736;8.752;2023-01-30T03:39:39;-0.70;99.90
55369;DHT22;41247;49.736;8.752;2023-01-30T03:43:20;-0.70;99.90
55369;DHT22;41247;49.736;8.752;2023-01-30T03:47:00;-0.70;99.90
55369;DHT22;41247;49.736;8.752;2023-01-30T03:50:41;-0.70;99.90
55369;DHT22;41247;49.736;8.752;2023-01-30T03:54:22;-0.80;99.90
55369;DHT22;41247;49.736;8.752;2023-01-30T03:58:03;-0.80;99.90
55369;DHT22;41247;49.736;8.752;2023-01-30T04:01:43;-0.80;99.90
55369;DHT22;41247;49.736;8.752;2023-01-30T04:05:24;-0.80;99.90
55369;DHT22;41247;49.736;8.752;2023-01-30T04:09:05;-0.80;99.90
55369;DHT22;41247;49.736;8.752;2023-01-30T04:12:46;-0.80;99.90
55369;DHT22;41247;49.736;8.752;2023-01-30T04:16:26;-0.80;99.90
55369;DHT22;41247;49.736;8.752;2023-01-30T04:20:07;-0.70;99.90
55369;DHT22;41247;49.736;8.752;2023-01-30T04:23:48;-0.70;99.90
55369;DHT22;41247;49.736;8.752;2023-01-30T04:27:29;-0.70;99.90
55369;DHT22;41247;49.736;8.752;2023-01-30T04:31:10;-0.60;99.90
55369;DHT22;41247;49.736;8.752;2023-01-30T04:34:51;-0.60;99.90
55369;DHT22;41247;49.736;8.752;2023-01-30T04:38:32;-0.60;99.90
55369;DHT22;41247;49.736;8.752;2023-01-30T04:42:14;-0.60;99.90
55369;DHT22;41247;49.736;8.752;2023-01-30T04:45:55;-0.60;99.90
55369;DHT22;41247;49.736;8.752;2023-01-30T04:49:48;-0.50;99.90
55369;DHT22;41247;49.736;8.752;2023-01-30T04:53:35;-0.50;99.90
55369;DHT22;41247;49.736;8.752;2023-01-30T04:57:18;-0.50;99.90
55369;DHT22;41247;49.736;8.752;2023-01-30T05:01:13;-0.50;99.90
55369;DHT22;41247;49.736;8.752;2023-01-30T05:04:54;-0.50;99.90
55369;DHT22;41247;49.736;8.752;2023-01-30T05:08:35;-0.50;99.90
55369;DHT22;41247;49.736;8.752;2023-01-30T05:12:17;-0.50;99.90
55369;DHT22;41247;49.736;8.752;2023-01-30T05:15:58;-0.40;99.90
55369;DHT22;41247;49.736;8.752;2023-01-30T05:19:39;-0.40;99.90
55369;DHT22;41247;49.736;8.752;2023-01-30T05:23:22;-0.40;99.90
55369;DHT22;41247;49.736;8.752;2023-01-30T05:27:04;-0.40;99.90
55369;DHT22;41247;49.736;8.752;2023-01-30T05:30:45;-0.50;99.90
55369;DHT22;41247;49.736;8.752;2023-01-30T05:34:29;-0.50;99.90
55369;DHT22;41247;49.736;8.752;2023-01-30T05:38:13;-0.50;99.90
55369;DHT22;41247;49.736;8.752;2023-01-30T05:41:55;-0.50;99.90
55369;DHT22;41247;49.736;8.752;2023-01-30T05:45:37;-0.50;99.90
55369;DHT22;41247;49.736;8.752;2023-01-30T05:49:18;-0.60;99.90
55369;DHT22;41247;49.736;8.752;2023-01-30T05:53:00;-0.60;99.90
55369;DHT22;41247;49.736;8.752;2023-01-30T05:56:42;-0.50;99.90
55369;DHT22;41247;49.736;8.752;2023-01-30T06:00:23;-0.50;99.90
55369;DHT22;41247;49.736;8.752;2023-01-30T06:04:04;-0.50;99.90
55369;DHT22;41247;49.736;8.752;2023-01-30T06:07:45;-0.40;99.90
55369;DHT22;41247;49.736;8.752;2023-01-30T06:11:26;-0.40;99.90
55369;DHT22;41247;49.736;8.752;2023-01-30T06:15:07;-0.40;99.90
55369;DHT22;41247;49.736;8.752;2023-01-30T06:18:48;-0.40;99.90
55369;DHT22;41247;49.736;8.752;2023-01-30T06:22:29;-0.30;99.90
55369;DHT22;41247;49.736;8.752;2023-01-30T06:26:10;-0.20;99.90
55369;DHT22;41247;49.736;8.752;2023-01-30T06:29:50;-0.20;99.90
55369;DHT22;41247;49.736;8.752;2023-01-30T06:33:31;-0.30;99.90
55369;DHT22;41247;49.736;8.752;2023-01-30T06:37:12;-0.30;99.90
55369;DHT22;41247;49.736;8.752;2023-01-30T06:40:52;-0.30;99.90
55369;DHT22;41247;49.736;8.752;2023-01-30T06:44:33;-0.30;99.90
55369;DHT22;41247;49.736;8.752;2023-01-30T06:48:13;-0.30;99.90
55369;DHT22;41247;49.736;8.752;2023-01-30T06:51:55;-0.20;99.90
55369;DHT22;41247;49.736;8.752;2023-01-30T06:55:36;-0.10;99.90
55369;DHT22;41247;49.736;8.752;2023-01-30T06:59:17;-0.10;99.90
55369;DHT22;41247;49.736;8.752;2023-01-30T07:02:58;0.00;99.90
55369;DHT22;41247;49.736;8.752;2023-01-30T07:06:40;-0.10;99.90
55369;DHT22;41247;49.736;8.752;2023-01-30T07:10:21;0.00;99.90
55369;DHT22;41247;49.736;8.752;2023-01-30T07:14:02;0.00;99.90
55369;DHT22;41247;49.736;8.752;2023-01-30T07:17:42;0.00;99.90
55369;DHT22;41247;49.736;8.752;2023-01-30T07:21:24;0.10;99.90
55369;DHT22;41247;49.736;8.752;2023-01-30T07:25:05;0.10;99.90
55369;DHT22;41247;49.736;8.752;2023-01-30T07:28:46;0.10;99.90
55369;DHT22;41247;49.736;8.752;2023-01-30T07:32:27;0.10;99.90
55369;DHT22;41247;49.736;8.752;2023-01-30T07:36:07;0.20;99.90
55369;DHT22;41247;49.736;8.752;2023-01-30T07:39:48;0.20;99.90
55369;DHT22;41247;49.736;8.752;2023-01-30T07:43:29;0.20;99.90
55369;DHT22;41247;49.736;8.752;2023-01-30T07:47:10;0.20;99.90
55369;DHT22;41247;49.736;8.752;2023-01-30T07:50:54;0.20;99.90
55369;DHT22;41247;49.736;8.752;2023-01-30T07:54:35;0.20;99.90
55369;DHT22;41247;49.736;8.752;2023-01-30T07:58:16;0.20;99.90
55369;DHT22;41247;49.736;8.752;2023-01-30T08:01:56;0.20;99.90
55369;DHT22;41247;49.736;8.752;2023-01-30T08:05:37;0.20;99.90
55369;DHT22;41247;49.736;8.752;2023-01-30T08:09:17;0.10;99.90
55369;DHT22;41247;49.736;8.752;2023-01-30T08:12:58;0.10;99.90
55369;DHT22;41247;49.736;8.752;2023-01-30T08:16:39;0.10;99.90
55369;DHT22;41247;49.736;8.752;2023-01-30T08:20:30;0.10;99.90
55369;DHT22;41247;49.736;8.752;2023-01-30T08:24:11;0.10;99.90
55369;DHT22;41247;49.736;8.752;2023-01-30T08:27:52;0.20;99.90
55369;DHT22;41247;49.736;8.752;2023-01-30T08:31:32;0.20;99.90
55369;DHT22;41247;49.736;8.752;2023-01-30T08:35:13;0.20;99.90
55369;DHT22;41247;49.736;8.752;2023-01-30T08:38:54;0.20;99.90
55369;DHT22;41247;49.736;8.752;2023-01-30T08:42:34;0.20;99.90
55369;DHT22;41247;49.736;8.752;2023-01-30T08:46:16;0.20;99.90
55369;DHT22;41247;49.736;8.752;2023-01-30T08:49:56;0.20;99.90
55369;DHT22;41247;49.736;8.752;2023-01-30T08:53:37;0.20;99.90
55369;DHT22;41247;49.736;8.752;2023-01-30T08:57:17;0.30;99.90
55369;DHT22;41247;49.736;8.752;2023-01-30T09:00:58;0.30;99.90
55369;DHT22;41247;49.736;8.752;2023-01-30T09:04:44;0.40;99.90
55369;DHT22;41247;49.736;8.752;2023-01-30T09:08:25;0.40;99.90
55369;DHT22;41247;49.736;8.752;2023-01-30T09:12:05;0.40;99.90
55369;DHT22;41247;49.736;8.752;2023-01-30T09:15:46;0.50;99.90
55369;DHT22;41247;49.736;8.752;2023-01-30T09:19:27;0.50;99.90
55369;DHT22;41247;49.736;8.752;2023-01-30T09:23:08;0.50;99.90
55369;DHT22;41247;49.736;8.752;2023-01-30T09:26:48;0.50;99.90
55369;DHT22;41247;49.736;8.752;2023-01-30T09:30:29;0.60;99.90
55369;DHT22;41247;49.736;8.752;2023-01-30T09:34:09;0.60;99.90
55369;DHT22;41247;49.736;8.752;2023-01-30T09:37:52;0.60;99.90
55369;DHT22;41247;49.736;8.752;2023-01-30T09:45:59;0.70;99.90
55369;DHT22;41247;49.736;8.752;2023-01-30T09:54:35;0.70;99.90
55369;DHT22;41247;49.736;8.752;2023-01-30T09:58:20;0.70;99.90
55369;DHT22;41247;49.736;8.752;2023-01-30T10:02:30;0.70;99.90
55369;DHT22;41247;49.736;8.752;2023-01-30T10:06:16;0.70;99.90
55369;DHT22;41247;49.736;8.752;2023-01-30T10:14:37;0.70;99.90
55369;DHT22;41247;49.736;8.752;2023-01-30T10:22:54;0.80;99.90
55369;DHT22;41247;49.736;8.752;2023-01-30T10:26:40;0.80;99.90
55369;DHT22;41247;49.736;8.752;2023-01-30T10:30:21;0.80;99.90
55369;DHT22;41247;49.736;8.752;2023-01-30T10:34:05;0.80;99.90
55369;DHT22;41247;49.736;8.752;2023-01-30T10:38:11;0.80;99.90
55369;DHT22;41247;49.736;8.752;2023-01-30T10:42:13;0.80;99.90
55369;DHT22;41247;49.736;8.752;2023-01-30T10:46:04;0.80;99.90
55369;DHT22;41247;49.736;8.752;2023-01-30T10:50:25;0.80;99.90
55369;DHT22;41247;49.736;8.752;2023-01-30T10:54:27;0.80;99.90
55369;DHT22;41247;49.736;8.752;2023-01-30T10:58:24;0.80;99.90
55369;DHT22;41247;49.736;8.752;2023-01-30T11:06:32;1.00;99.90
55369;DHT22;41247;49.736;8.752;2023-01-30T11:10:25;1.20;99.90
55369;DHT22;41247;49.736;8.752;2023-01-30T11:14:09;1.30;99.90
55369;DHT22;41247;49.736;8.752;2023-01-30T11:18:03;1.40;99.90
55369;DHT22;41247;49.736;8.752;2023-01-30T11:21:50;1.40;99.90
55369;DHT22;41247;49.736;8.752;2023-01-30T11:25:46;1.50;99.90
55369;DHT22;41247;49.736;8.752;2023-01-30T11:29:30;1.60;99.90
55369;DHT22;41247;49.736;8.752;2023-01-30T11:33:13;1.70;99.90
55369;DHT22;41247;49.736;8.752;2023-01-30T11:37:32;1.80;99.90
55369;DHT22;41247;49.736;8.752;2023-01-30T11:41:20;1.80;99.90
55369;DHT22;41247;49.736;8.752;2023-01-30T11:45:01;1.80;99.90
55369;DHT22;41247;49.736;8.752;2023-01-30T11:48:49;2.00;99.90
55369;DHT22;41247;49.736;8.752;2023-01-30T11:52:33;2.00;99.90
55369;DHT22;41247;49.736;8.752;2023-01-30T11:56:17;2.00;99.90
55369;DHT22;41247;49.736;8.752;2023-01-30T12:00:02;2.00;99.90
55369;DHT22;41247;49.736;8.752;2023-01-30T12:03:49;2.10;99.90
55369;DHT22;41247;49.736;8.752;2023-01-30T12:07:34;2.10;99.90
55369;DHT22;41247;49.736;8.752;2023-01-30T12:11:42;2.10;99.90
55369;DHT22;41247;49.736;8.752;2023-01-30T12:15:30;2.10;99.90
55369;DHT22;41247;49.736;8.752;2023-01-30T12:19:33;2.10;99.90
55369;DHT22;41247;49.736;8.752;2023-01-30T12:31:43;2.30;99.90
55369;DHT22;41247;49.736;8.752;2023-01-30T12:35:31;2.40;99.90
55369;DHT22;41247;49.736;8.752;2023-01-30T12:44:10;2.50;99.90
55369;DHT22;41247;49.736;8.752;2023-01-30T12:48:39;2.30;99.90
55369;DHT22;41247;49.736;8.752;2023-01-30T12:57:37;2.60;99.90
55369;DHT22;41247;49.736;8.752;2023-01-30T13:02:02;2.90;99.90
55369;DHT22;41247;49.736;8.752;2023-01-30T13:06:06;2.90;99.90
55369;DHT22;41247;49.736;8.752;2023-01-30T13:13:54;2.70;99.90
55369;DHT22;41247;49.736;8.752;2023-01-30T13:18:07;2.70;99.90
55369;DHT22;41247;49.736;8.752;2023-01-30T13:22:19;2.70;99.90
55369;DHT22;41247;49.736;8.752;2023-01-30T13:26:16;2.70;99.90
55369;DHT22;41247;49.736;8.752;2023-01-30T13:30:00;2.70;99.90
55369;DHT22;41247;49.736;8.752;2023-01-30T13:33:43;2.70;99.90
55369;DHT22;41247;49.736;8.752;2023-01-30T13:37:25;2.90;99.90
55369;DHT22;41247;49.736;8.752;2023-01-30T13:41:09;3.00;99.90
55369;DHT22;41247;49.736;8.752;2023-01-30T13:44:53;2.90;99.90
55369;DHT22;41247;49.736;8.752;2023-01-30T13:49:02;2.90;99.90
55369;DHT22;41247;49.736;8.752;2023-01-30T13:53:17;2.80;99.90
55369;DHT22;41247;49.736;8.752;2023-01-30T13:57:12;2.70;99.90
55369;DHT22;41247;49.736;8.752;2023-01-30T14:00:57;2.60;99.90
55369;DHT22;41247;49.736;8.752;2023-01-30T14:04:42;2.50;99.90
55369;DHT22;41247;49.736;8.752;2023-01-30T14:08:37;2.40;99.90
55369;DHT22;41247;49.736;8.752;2023-01-30T14:12:22;2.40;99.90
55369;DHT22;41247;49.736;8.752;2023-01-30T14:16:05;2.40;99.90
55369;DHT22;41247;49.736;8.752;2023-01-30T14:19:58;2.40;99.90
55369;DHT22;41247;49.736;8.752;2023-01-30T14:24:02;2.40;99.90
55369;DHT22;41247;49.736;8.752;2023-01-30T14:27:43;2.40;99.90
55369;DHT22;41247;49.736;8.752;2023-01-30T14:31:45;2.40;99.90
55369;DHT22;41247;49.736;8.752;2023-01-30T14:35:29;2.50;99.90
55369;DHT22;41247;49.736;8.752;2023-01-30T14:39:36;2.40;99.90
55369;DHT22;41247;49.736;8.752;2023-01-30T14:47:16;2.40;99.90
55369;DHT22;41247;49.736;8.752;2023-01-30T14:55:21;2.30;99.90
55369;DHT22;41247;49.736;8.752;2023-01-30T14:59:07;2.30;99.90
55369;DHT22;41247;49.736;8.752;2023-01-30T15:03:17;2.30;99.90
55369;DHT22;41247;49.736;8.752;2023-01-30T15:07:03;2.30;99.90
55369;DHT22;41247;49.736;8.752;2023-01-30T15:11:17;2.30;99.90
55369;DHT22;41247;49.736;8.752;2023-01-30T15:15:59;2.30;99.90
55369;DHT22;41247;49.736;8.752;2023-01-30T15:32:19;1.80;99.90
55369;DHT22;41247;49.736;8.752;2023-01-30T15:36:34;1.80;99.90
55369;DHT22;41247;49.736;8.752;2023-01-30T15:44:02;1.90;99.90
55369;DHT22;41247;49.736;8.752;2023-01-30T15:52:21;2.00;99.90
55369;DHT22;41247;49.736;8.752;2023-01-30T15:56:07;2.00;99.90
55369;DHT22;41247;49.736;8.752;2023-01-30T15:59:49;1.90;99.90
55369;DHT22;41247;49.736;8.752;2023-01-30T16:03:32;1.90;99.90
55369;DHT22;41247;49.736;8.752;2023-01-30T16:07:22;1.80;99.90
55369;DHT22;41247;49.736;8.752;2023-01-30T16:11:05;1.70;99.90
55369;DHT22;41247;49.736;8.752;2023-01-30T16:14:45;1.70;99.90
55369;DHT22;41247;49.736;8.752;2023-01-30T16:18:34;1.60;99.90
55369;DHT22;41247;49.736;8.752;2023-01-30T16:22:32;1.60;99.90
55369;DHT22;41247;49.736;8.752;2023-01-30T16:26:16;1.50;99.90
55369;DHT22;41247;49.736;8.752;2023-01-30T16:30:00;1.60;99.90
55369;DHT22;41247;49.736;8.752;2023-01-30T16:33:51;1.50;99.90
55369;DHT22;41247;49.736;8.752;2023-01-30T16:37:31;1.60;99.90
55369;DHT22;41247;49.736;8.752;2023-01-30T16:41:31;1.70;99.90
55369;DHT22;41247;49.736;8.752;2023-01-30T16:53:17;1.70;99.90
55369;DHT22;41247;49.736;8.752;2023-01-30T16:57:00;1.80;99.90
55369;DHT22;41247;49.736;8.752;2023-01-30T17:00:41;1.80;99.90
55369;DHT22;41247;49.736;8.752;2023-01-30T17:04:23;1.80;99.90
55369;DHT22;41247;49.736;8.752;2023-01-30T17:12:35;2.00;99.90
55369;DHT22;41247;49.736;8.752;2023-01-30T17:16:32;2.00;99.90
55369;DHT22;41247;49.736;8.752;2023-01-30T17:20:14;2.00;99.90
55369;DHT22;41247;49.736;8.752;2023-01-30T17:24:05;2.10;99.90
55369;DHT22;41247;49.736;8.752;2023-01-30T17:27:45;2.00;99.90
55369;DHT22;41247;49.736;8.752;2023-01-30T17:31:27;2.10;99.90
55369;DHT22;41247;49.736;8.752;2023-01-30T17:35:07;2.00;99.90
55369;DHT22;41247;49.736;8.752;2023-01-30T17:38:48;2.00;99.90
55369;DHT22;41247;49.736;8.752;2023-01-30T17:42:28;2.00;99.90
55369;DHT22;41247;49.736;8.752;2023-01-30T17:46:11;2.00;99.90
55369;DHT22;41247;49.736;8.752;2023-01-30T17:49:52;2.00;99.90
55369;DHT22;41247;49.736;8.752;2023-01-30T17:53:33;2.00;99.90
55369;DHT22;41247;49.736;8.752;2023-01-30T17:57:14;2.00;99.90
55369;DHT22;41247;49.736;8.752;2023-01-30T18:00:54;2.00;99.90
55369;DHT22;41247;49.736;8.752;2023-01-30T18:04:35;2.00;99.90
55369;DHT22;41247;49.736;8.752;2023-01-30T18:08:15;2.00;99.90
55369;DHT22;41247;49.736;8.752;2023-01-30T18:11:56;2.00;99.90
55369;DHT22;41247;49.736;8.752;2023-01-30T18:15:37;2.00;99.90
55369;DHT22;41247;49.736;8.752;2023-01-30T18:19:17;2.00;99.90
55369;DHT22;41247;49.736;8.752;2023-01-30T18:22:58;2.00;99.90
55369;DHT22;41247;49.736;8.752;2023-01-30T18:26:38;2.00;99.90
55369;DHT22;41247;49.736;8.752;2023-01-30T18:30:19;2.00;99.90
55369;DHT22;41247;49.736;8.752;2023-01-30T18:34:00;2.00;99.90
55369;DHT22;41247;49.736;8.752;2023-01-30T18:37:40;1.90;99.90
55369;DHT22;41247;49.736;8.752;2023-01-30T18:41:23;1.80;99.90
55369;DHT22;41247;49.736;8.752;2023-01-30T18:45:04;1.90;99.90
55369;DHT22;41247;49.736;8.752;2023-01-30T18:48:45;1.90;99.90
55369;DHT22;41247;49.736;8.752;2023-01-30T18:52:26;1.90;99.90
55369;DHT22;41247;49.736;8.752;2023-01-30T18:56:11;1.90;99.90
55369;DHT22;41247;49.736;8.752;2023-01-30T18:59:56;1.90;99.90
55369;DHT22;41247;49.736;8.752;2023-01-30T19:03:37;1.90;99.90
55369;DHT22;41247;49.736;8.752;2023-01-30T19:07:17;1.90;99.90
55369;DHT22;41247;49.736;8.752;2023-01-30T19:11:05;1.90;99.90
55369;DHT22;41247;49.736;8.752;2023-01-30T19:14:49;1.90;99.90
55369;DHT22;41247;49.736;8.752;2023-01-30T19:18:30;1.90;99.90
55369;DHT22;41247;49.736;8.752;2023-01-30T19:22:11;1.90;99.90
55369;DHT22;41247;49.736;8.752;2023-01-30T19:25:56;1.90;99.90
55369;DHT22;41247;49.736;8.752;2023-01-30T19:29:37;1.90;99.90
55369;DHT22;41247;49.736;8.752;2023-01-30T19:33:17;1.90;99.90
55369;DHT22;41247;49.736;8.752;2023-01-30T19:36:58;2.00;99.90
55369;DHT22;41247;49.736;8.752;2023-01-30T19:40:43;2.00;99.90
55369;DHT22;41247;49.736;8.752;2023-01-30T19:44:24;2.00;99.90
55369;DHT22;41247;49.736;8.752;2023-01-30T19:48:05;2.00;99.90
55369;DHT22;41247;49.736;8.752;2023-01-30T19:51:46;2.00;99.90
55369;DHT22;41247;49.736;8.752;2023-01-30T19:55:26;2.00;99.90
55369;DHT22;41247;49.736;8.752;2023-01-30T19:59:08;2.00;99.90
55369;DHT22;41247;49.736;8.752;2023-01-30T20:02:50;2.00;99.90
55369;DHT22;41247;49.736;8.752;2023-01-30T20:06:33;2.00;99.90
55369;DHT22;41247;49.736;8.752;2023-01-30T20:10:15;2.00;99.90
55369;DHT22;41247;49.736;8.752;2023-01-30T20:13:57;2.00;99.90
55369;DHT22;41247;49.736;8.752;2023-01-30T20:17:38;2.00;99.90
55369;DHT22;41247;49.736;8.752;2023-01-30T20:21:19;2.00;99.90
55369;DHT22;41247;49.736;8.752;2023-01-30T20:25:01;2.00;99.90
55369;DHT22;41247;49.736;8.752;2023-01-30T20:28:42;2.00;99.90
55369;DHT22;41247;49.736;8.752;2023-01-30T20:32:22;2.00;99.90
55369;DHT22;41247;49.736;8.752;2023-01-30T20:36:05;2.00;99.90
55369;DHT22;41247;49.736;8.752;2023-01-30T20:39:47;2.00;99.90
55369;DHT22;41247;49.736;8.752;2023-01-30T20:43:35;2.00;99.90
55369;DHT22;41247;49.736;8.752;2023-01-30T20:47:20;2.00;99.90
55369;DHT22;41247;49.736;8.752;2023-01-30T20:51:02;2.00;99.90
55369;DHT22;41247;49.736;8.752;2023-01-30T20:54:51;2.10;99.90
55369;DHT22;41247;49.736;8.752;2023-01-30T20:58:32;2.10;99.90
55369;DHT22;41247;49.736;8.752;2023-01-30T21:02:12;2.10;99.90
55369;DHT22;41247;49.736;8.752;2023-01-30T21:05:57;2.10;99.90
55369;DHT22;41247;49.736;8.752;2023-01-30T21:09:38;2.10;99.90
55369;DHT22;41247;49.736;8.752;2023-01-30T21:13:19;2.10;99.90
55369;DHT22;41247;49.736;8.752;2023-01-30T21:17:00;2.10;99.90
55369;DHT22;41247;49.736;8.752;2023-01-30T21:20:47;2.10;99.90
55369;DHT22;41247;49.736;8.752;2023-01-30T21:24:28;2.10;99.90
55369;DHT22;41247;49.736;8.752;2023-01-30T21:28:08;2.10;99.90
55369;DHT22;41247;49.736;8.752;2023-01-30T21:31:49;2.20;99.90
55369;DHT22;41247;49.736;8.752;2023-01-30T21:35:30;2.20;99.90
55369;DHT22;41247;49.736;8.752;2023-01-30T21:39:12;2.20;99.90
55369;DHT22;41247;49.736;8.752;2023-01-30T21:42:52;2.20;99.90
55369;DHT22;41247;49.736;8.752;2023-01-30T21:46:39;2.10;99.90
55369;DHT22;41247;49.736;8.752;2023-01-30T21:50:21;2.20;99.90
55369;DHT22;41247;49.736;8.752;2023-01-30T21:54:02;2.20;99.90
55369;DHT22;41247;49.736;8.752;2023-01-30T21:57:43;2.10;99.90
55369;DHT22;41247;49.736;8.752;2023-01-30T22:01:24;2.20;99.90
55369;DHT22;41247;49.736;8.752;2023-01-30T22:05:06;2.20;99.90
55369;DHT22;41247;49.736;8.752;2023-01-30T22:08:47;2.20;99.90
55369;DHT22;41247;49.736;8.752;2023-01-30T22:12:28;2.10;99.90
55369;DHT22;41247;49.736;8.752;2023-01-30T22:16:11;2.10;99.90
55369;DHT22;41247;49.736;8.752;2023-01-30T22:19:52;2.20;99.90
55369;DHT22;41247;49.736;8.752;2023-01-30T22:23:34;2.20;99.90
55369;DHT22;41247;49.736;8.752;2023-01-30T22:27:19;2.20;99.90
55369;DHT22;41247;49.736;8.752;2023-01-30T22:34:50;2.20;99.90
55369;DHT22;41247;49.736;8.752;2023-01-30T22:38:30;2.20;99.90
55369;DHT22;41247;49.736;8.752;2023-01-30T22:42:11;2.20;99.90
55369;DHT22;41247;49.736;8.752;2023-01-30T22:45:59;2.20;99.90
55369;DHT22;41247;49.736;8.752;2023-01-30T22:49:41;2.20;99.90
55369;DHT22;41247;49.736;8.752;2023-01-30T22:53:21;2.20;99.90
55369;DHT22;41247;49.736;8.752;2023-01-30T22:57:02;2.20;99.90
55369;DHT22;41247;49.736;8.752;2023-01-30T23:00:43;2.20;99.90
55369;DHT22;41247;49.736;8.752;2023-01-30T23:04:23;2.10;99.90
55369;DHT22;41247;49.736;8.752;2023-01-30T23:08:04;2.10;99.90
55369;DHT22;41247;49.736;8.752;2023-01-30T23:11:47;2.10;99.90
55369;DHT22;41247;49.736;8.752;2023-01-30T23:15:33;2.00;99.90
55369;DHT22;41247;49.736;8.752;2023-01-30T23:19:14;2.10;99.90
55369;DHT22;41247;49.736;8.752;2023-01-30T23:22:54;2.00;99.90
55369;DHT22;41247;49.736;8.752;2023-01-30T23:26:40;2.00;99.90
55369;DHT22;41247;49.736;8.752;2023-01-30T23:30:22;2.00;99.90
55369;DHT22;41247;49.736;8.752;2023-01-30T23:34:04;1.90;99.90
55369;DHT22;41247;49.736;8.752;2023-01-30T23:37:46;1.80;99.90
55369;DHT22;41247;49.736;8.752;2023-01-30T23:41:29;1.90;99.90
55369;DHT22;41247;49.736;8.752;2023-01-30T23:45:11;1.90;99.90
55369;DHT22;41247;49.736;8.752;2023-01-30T23:48:55;1.90;99.90
55369;DHT22;41247;49.736;8.752;2023-01-30T23:52:37;1.90;99.90
55369;DHT22;41247;49.736;8.752;2023-01-30T23:56:19;1.90;99.90
